sensor_id;sensor_type;location;lat;lon;timestamp;pressure;altitude;pressure_sealevel;temperature;humidity
25722;BME280;13578;53.450;15.496;2024-03-08T00:02:13;100722.00;;;-1.25;100.00
25722;BME280;13578;53.450;15.496;2024-03-08T00:05:14;100728.47;;;-1.33;100.00
25722;BME280;13578;53.450;15.496;2024-03-08T00:08:15;100709.97;;;-1.47;100.00
25722;BME280;13578;53.450;15.496;2024-03-08T00:11:16;100720.63;;;-1.42;100.00
25722;BME280;13578;53.450;15.496;2024-03-08T00:14:16;100723.34;;;-1.44;100.00
25722;BME280;13578;53.450;15.496;2024-03-08T00:17:17;100720.88;;;-1.51;100.00
25722;BME280;13578;53.450;15.496;2024-03-08T00:20:18;100721.78;;;-1.52;100.00
25722;BME280;13578;53.450;15.496;2024-03-08T00:23:18;100713.63;;;-1.49;100.00
25722;BME280;13578;53.450;15.496;2024-03-08T00:26:19;100712.91;;;-1.56;100.00
25722;BME280;13578;53.450;15.496;2024-03-08T00:29:20;100713.81;;;-1.57;100.00
25722;BME280;13578;53.450;15.496;2024-03-08T00:32:22;100713.81;;;-1.57;100.00
25722;BME280;13578;53.450;15.496;2024-03-08T00:35:25;100715.59;;;-1.56;100.00
25722;BME280;13578;53.450;15.496;2024-03-08T00:38:26;100714.81;;;-1.61;100.00
25722;BME280;13578;53.450;15.496;2024-03-08T00:41:26;100718.31;;;-1.57;100.00
25722;BME280;13578;53.450;15.496;2024-03-08T00:44:27;100720.06;;;-1.55;100.00
25722;BME280;13578;53.450;15.496;2024-03-08T00:47:28;100718.84;;;-1.43;100.00
25722;BME280;13578;53.450;15.496;2024-03-08T00:50:28;100712.44;;;-1.73;100.00
25722;BME280;13578;53.450;15.496;2024-03-08T00:53:29;100716.84;;;-1.69;100.00
25722;BME280;13578;53.450;15.496;2024-03-08T00:56:30;100713.34;;;-1.73;100.00
25722;BME280;13578;53.450;15.496;2024-03-08T00:59:30;100711.28;;;-1.63;100.00
25722;BME280;13578;53.450;15.496;2024-03-08T01:02:32;100710.78;;;-1.79;100.00
25722;BME280;13578;53.450;15.496;2024-03-08T01:05:35;100697.84;;;-1.65;100.00
25722;BME280;13578;53.450;15.496;2024-03-08T01:08:36;100701.59;;;-1.70;100.00
25722;BME280;13578;53.450;15.496;2024-03-08T01:11:38;100696.41;;;-1.78;100.00
25722;BME280;13578;53.450;15.496;2024-03-08T01:14:39;100701.06;;;-1.85;100.00
25722;BME280;13578;53.450;15.496;2024-03-08T01:17:40;100688.75;;;-1.95;100.00
25722;BME280;13578;53.450;15.496;2024-03-08T01:20:40;100694.06;;;-1.94;100.00
25722;BME280;13578;53.450;15.496;2024-03-08T01:23:41;100686.00;;;-1.92;100.00
25722;BME280;13578;53.450;15.496;2024-03-08T01:26:42;100684.94;;;-1.86;100.00
25722;BME280;13578;53.450;15.496;2024-03-08T01:29:43;100683.50;;;-2.01;100.00
25722;BME280;13578;53.450;15.496;2024-03-08T01:32:44;100682.59;;;-2.02;100.00
25722;BME280;13578;53.450;15.496;2024-03-08T01:35:44;100678.72;;;-1.88;100.00
25722;BME280;13578;53.450;15.496;2024-03-08T01:38:45;100682.41;;;-1.93;100.00
25722;BME280;13578;53.450;15.496;2024-03-08T01:41:45;100670.41;;;-2.17;100.00
25722;BME280;13578;53.450;15.496;2024-03-08T01:44:46;100672.69;;;-1.98;100.00
25722;BME280;13578;53.450;15.496;2024-03-08T01:47:47;100667.38;;;-2.01;100.00
25722;BME280;13578;53.450;15.496;2024-03-08T01:50:48;100672.03;;;-2.10;100.00
25722;BME280;13578;53.450;15.496;2024-03-08T01:53:49;100669.50;;;-2.16;100.00
25722;BME280;13578;53.450;15.496;2024-03-08T01:56:50;100670.81;;;-1.96;100.00
25722;BME280;13578;53.450;15.496;2024-03-08T01:59:53;100656.53;;;-1.98;100.00
25722;BME280;13578;53.450;15.496;2024-03-08T02:02:57;100665.53;;;-1.99;100.00
25722;BME280;13578;53.450;15.496;2024-03-08T02:05:58;100657.22;;;-1.90;100.00
25722;BME280;13578;53.450;15.496;2024-03-08T02:09:01;100651.22;;;-2.01;100.00
25722;BME280;13578;53.450;15.496;2024-03-08T02:12:07;100656.44;;;-1.95;100.00
25722;BME280;13578;53.450;15.496;2024-03-08T02:15:08;100657.19;;;-1.88;100.00
25722;BME280;13578;53.450;15.496;2024-03-08T02:18:09;100647.25;;;-1.85;100.00
25722;BME280;13578;53.450;15.496;2024-03-08T02:21:09;100657.09;;;-1.85;100.00
25722;BME280;13578;53.450;15.496;2024-03-08T02:24:10;100645.38;;;-1.83;100.00
25722;BME280;13578;53.450;15.496;2024-03-08T02:27:11;100654.13;;;-1.74;100.00
25722;BME280;13578;53.450;15.496;2024-03-08T02:30:12;100650.34;;;-1.66;100.00
25722;BME280;13578;53.450;15.496;2024-03-08T02:33:14;100650.28;;;-1.64;100.00
25722;BME280;13578;53.450;15.496;2024-03-08T02:36:18;100646.84;;;-1.69;100.00
25722;BME280;13578;53.450;15.496;2024-03-08T02:39:18;100643.94;;;-1.62;100.00
25722;BME280;13578;53.450;15.496;2024-03-08T02:42:20;100642.97;;;-1.59;100.00
25722;BME280;13578;53.450;15.496;2024-03-08T02:45:21;100648.59;;;-1.68;100.00
25722;BME280;13578;53.450;15.496;2024-03-08T02:48:21;100640.50;;;-1.68;100.00
25722;BME280;13578;53.450;15.496;2024-03-08T02:51:22;100638.88;;;-1.74;100.00
25722;BME280;13578;53.450;15.496;2024-03-08T02:54:23;100638.09;;;-1.78;100.00
25722;BME280;13578;53.450;15.496;2024-03-08T02:57:24;100631.78;;;-1.77;100.00
25722;BME280;13578;53.450;15.496;2024-03-08T03:00:25;100639.00;;;-1.79;100.00
25722;BME280;13578;53.450;15.496;2024-03-08T03:03:25;100630.19;;;-1.85;100.00
25722;BME280;13578;53.450;15.496;2024-03-08T03:06:27;100623.09;;;-1.88;100.00
25722;BME280;13578;53.450;15.496;2024-03-08T03:09:27;100629.84;;;-1.71;100.00
25722;BME280;13578;53.450;15.496;2024-03-08T03:12:29;100624.41;;;-1.70;100.00
25722;BME280;13578;53.450;15.496;2024-03-08T03:15:30;100628.81;;;-1.67;100.00
25722;BME280;13578;53.450;15.496;2024-03-08T03:18:31;100635.00;;;-1.64;100.00
25722;BME280;13578;53.450;15.496;2024-03-08T03:21:33;100623.94;;;-1.86;100.00
25722;BME280;13578;53.450;15.496;2024-03-08T03:24:36;100622.91;;;-1.80;100.00
25722;BME280;13578;53.450;15.496;2024-03-08T03:27:38;100610.59;;;-1.90;100.00
25722;BME280;13578;53.450;15.496;2024-03-08T03:30:40;100612.53;;;-1.97;100.00
25722;BME280;13578;53.450;15.496;2024-03-08T03:33:41;100606.47;;;-2.05;100.00
25722;BME280;13578;53.450;15.496;2024-03-08T03:36:42;100606.34;;;-2.01;100.00
25722;BME280;13578;53.450;15.496;2024-03-08T03:39:42;100605.50;;;-2.01;100.00
25722;BME280;13578;53.450;15.496;2024-03-08T03:42:49;100604.47;;;-1.97;100.00
25722;BME280;13578;53.450;15.496;2024-03-08T03:45:50;100610.94;;;-2.04;100.00
25722;BME280;13578;53.450;15.496;2024-03-08T03:48:51;100610.50;;;-2.22;100.00
25722;BME280;13578;53.450;15.496;2024-03-08T03:51:51;100613.13;;;-2.20;100.00
25722;BME280;13578;53.450;15.496;2024-03-08T03:54:52;100606.63;;;-2.12;100.00
25722;BME280;13578;53.450;15.496;2024-03-08T03:57:53;100604.03;;;-2.15;100.00
25722;BME280;13578;53.450;15.496;2024-03-08T04:00:53;100604.63;;;-2.03;100.00
25722;BME280;13578;53.450;15.496;2024-03-08T04:03:54;100604.72;;;-2.06;100.00
25722;BME280;13578;53.450;15.496;2024-03-08T04:06:55;100595.91;;;-2.13;100.00
25722;BME280;13578;53.450;15.496;2024-03-08T04:09:56;100603.03;;;-2.11;100.00
25722;BME280;13578;53.450;15.496;2024-03-08T04:12:56;100593.91;;;-2.05;100.00
25722;BME280;13578;53.450;15.496;2024-03-08T04:15:57;100596.44;;;-1.99;100.00
25722;BME280;13578;53.450;15.496;2024-03-08T04:18:58;100601.94;;;-2.03;100.00
25722;BME280;13578;53.450;15.496;2024-03-08T04:21:59;100596.72;;;-2.10;100.00
25722;BME280;13578;53.450;15.496;2024-03-08T04:25:02;100599.47;;;-2.11;100.00
25722;BME280;13578;53.450;15.496;2024-03-08T04:28:03;100601.50;;;-2.21;100.00
25722;BME280;13578;53.450;15.496;2024-03-08T04:31:03;100602.31;;;-2.19;100.00
25722;BME280;13578;53.450;15.496;2024-03-08T04:34:04;100597.00;;;-2.20;100.00
25722;BME280;13578;53.450;15.496;2024-03-08T04:37:05;100592.34;;;-2.14;100.00
25722;BME280;13578;53.450;15.496;2024-03-08T04:40:06;100592.47;;;-2.20;100.00
25722;BME280;13578;53.450;15.496;2024-03-08T04:43:08;100589.66;;;-2.14;100.00
25722;BME280;13578;53.450;15.496;2024-03-08T04:46:09;100584.47;;;-2.21;100.00
25722;BME280;13578;53.450;15.496;2024-03-08T04:49:13;100574.88;;;-2.33;100.00
25722;BME280;13578;53.450;15.496;2024-03-08T04:52:13;100592.03;;;-2.37;100.00
25722;BME280;13578;53.450;15.496;2024-03-08T04:55:14;100585.63;;;-2.32;100.00
25722;BME280;13578;53.450;15.496;2024-03-08T04:58:15;100580.41;;;-2.40;100.00
25722;BME280;13578;53.450;15.496;2024-03-08T05:01:16;100575.19;;;-2.46;100.00
25722;BME280;13578;53.450;15.496;2024-03-08T05:04:16;100584.28;;;-2.51;100.00
25722;BME280;13578;53.450;15.496;2024-03-08T05:07:17;100584.63;;;-2.28;100.00
25722;BME280;13578;53.450;15.496;2024-03-08T05:10:18;100584.31;;;-2.53;100.00
25722;BME280;13578;53.450;15.496;2024-03-08T05:13:18;100588.75;;;-2.50;100.00
25722;BME280;13578;53.450;15.496;2024-03-08T05:16:19;100581.88;;;-2.64;100.00
25722;BME280;13578;53.450;15.496;2024-03-08T05:19:22;100579.16;;;-2.62;100.00
25722;BME280;13578;53.450;15.496;2024-03-08T05:22:23;100579.00;;;-2.56;100.00
25722;BME280;13578;53.450;15.496;2024-03-08T05:25:24;100583.47;;;-2.55;100.00
25722;BME280;13578;53.450;15.496;2024-03-08T05:28:25;100580.13;;;-2.65;100.00
25722;BME280;13578;53.450;15.496;2024-03-08T05:31:25;100581.94;;;-2.67;100.00
25722;BME280;13578;53.450;15.496;2024-03-08T05:34:26;100572.94;;;-2.64;100.00
25722;BME280;13578;53.450;15.496;2024-03-08T05:37:29;100569.31;;;-2.62;100.00
25722;BME280;13578;53.450;15.496;2024-03-08T05:40:31;100573.69;;;-2.58;100.00
25722;BME280;13578;53.450;15.496;2024-03-08T05:43:32;100573.50;;;-2.50;100.00
25722;BME280;13578;53.450;15.496;2024-03-08T05:46:34;100579.81;;;-2.52;100.00
25722;BME280;13578;53.450;15.496;2024-03-08T05:49:36;100573.63;;;-2.54;100.00
25722;BME280;13578;53.450;15.496;2024-03-08T05:52:36;100573.25;;;-2.39;100.00
25722;BME280;13578;53.450;15.496;2024-03-08T05:55:38;100574.59;;;-2.21;100.00
25722;BME280;13578;53.450;15.496;2024-03-08T05:58:39;100569.44;;;-2.30;100.00
25722;BME280;13578;53.450;15.496;2024-03-08T06:01:40;100571.22;;;-2.31;100.00
25722;BME280;13578;53.450;15.496;2024-03-08T06:04:41;100571.38;;;-2.37;100.00
25722;BME280;13578;53.450;15.496;2024-03-08T06:07:43;100570.63;;;-2.42;100.00
25722;BME280;13578;53.450;15.496;2024-03-08T06:10:43;100575.81;;;-2.34;100.00
25722;BME280;13578;53.450;15.496;2024-03-08T06:13:45;100574.59;;;-2.21;100.00
25722;BME280;13578;53.450;15.496;2024-03-08T06:16:46;100578.22;;;-2.22;100.00
25722;BME280;13578;53.450;15.496;2024-03-08T06:19:47;100578.13;;;-2.19;100.00
25722;BME280;13578;53.450;15.496;2024-03-08T06:22:47;100585.09;;;-2.12;100.00
25722;BME280;13578;53.450;15.496;2024-03-08T06:25:48;100575.84;;;-2.00;100.00
25722;BME280;13578;53.450;15.496;2024-03-08T06:28:48;100572.91;;;-1.90;100.00
25722;BME280;13578;53.450;15.496;2024-03-08T06:31:49;100578.06;;;-1.81;100.00
25722;BME280;13578;53.450;15.496;2024-03-08T06:34:50;100576.97;;;-1.74;100.00
25722;BME280;13578;53.450;15.496;2024-03-08T06:37:51;100569.47;;;-1.63;100.00
25722;BME280;13578;53.450;15.496;2024-03-08T06:40:52;100580.19;;;-1.61;100.00
25722;BME280;13578;53.450;15.496;2024-03-08T06:43:53;100574.31;;;-1.42;100.00
25722;BME280;13578;53.450;15.496;2024-03-08T06:46:58;100569.56;;;-1.33;100.00
25722;BME280;13578;53.450;15.496;2024-03-08T06:49:58;100564.88;;;-1.26;100.00
25722;BME280;13578;53.450;15.496;2024-03-08T06:52:59;100564.47;;;-1.12;100.00
25722;BME280;13578;53.450;15.496;2024-03-08T06:56:00;100569.53;;;-1.01;100.00
25722;BME280;13578;53.450;15.496;2024-03-08T06:59:01;100573.63;;;-0.88;100.00
25722;BME280;13578;53.450;15.496;2024-03-08T07:02:04;100573.34;;;-0.78;100.00
25722;BME280;13578;53.450;15.496;2024-03-08T07:05:05;100581.88;;;-0.64;100.00
25722;BME280;13578;53.450;15.496;2024-03-08T07:08:06;100574.88;;;-0.41;100.00
25722;BME280;13578;53.450;15.496;2024-03-08T07:11:07;100576.66;;;-0.40;100.00
25722;BME280;13578;53.450;15.496;2024-03-08T07:14:08;100582.63;;;-0.30;100.00
25722;BME280;13578;53.450;15.496;2024-03-08T07:17:09;100587.59;;;-0.17;100.00
25722;BME280;13578;53.450;15.496;2024-03-08T07:20:10;100587.44;;;-0.12;100.00
25722;BME280;13578;53.450;15.496;2024-03-08T07:23:12;100589.66;;;-0.25;100.00
25722;BME280;13578;53.450;15.496;2024-03-08T07:26:33;100583.00;;;-0.14;100.00
25722;BME280;13578;53.450;15.496;2024-03-08T07:29:34;100586.59;;;-0.14;100.00
25722;BME280;13578;53.450;15.496;2024-03-08T07:32:35;100584.22;;;0.04;100.00
25722;BME280;13578;53.450;15.496;2024-03-08T07:35:36;100589.19;;;0.16;100.00
25722;BME280;13578;53.450;15.496;2024-03-08T07:38:37;100585.41;;;0.22;100.00
25722;BME280;13578;53.450;15.496;2024-03-08T07:41:38;100585.06;;;0.31;100.00
25722;BME280;13578;53.450;15.496;2024-03-08T07:44:40;100581.44;;;0.32;100.00
25722;BME280;13578;53.450;15.496;2024-03-08T07:47:40;100580.03;;;0.47;100.00
25722;BME280;13578;53.450;15.496;2024-03-08T07:50:41;100577.25;;;0.49;100.00
25722;BME280;13578;53.450;15.496;2024-03-08T07:53:42;100574.81;;;0.41;100.00
25722;BME280;13578;53.450;15.496;2024-03-08T07:56:44;100566.28;;;0.53;100.00
25722;BME280;13578;53.450;15.496;2024-03-08T07:59:45;100568.53;;;0.66;100.00
25722;BME280;13578;53.450;15.496;2024-03-08T08:02:45;100562.91;;;0.72;100.00
25722;BME280;13578;53.450;15.496;2024-03-08T08:05:46;100566.50;;;0.72;100.00
25722;BME280;13578;53.450;15.496;2024-03-08T08:08:47;100559.16;;;0.76;100.00
25722;BME280;13578;53.450;15.496;2024-03-08T08:11:47;100567.56;;;0.92;100.00
25722;BME280;13578;53.450;15.496;2024-03-08T08:14:48;100569.69;;;1.07;100.00
25722;BME280;13578;53.450;15.496;2024-03-08T08:17:49;100576.38;;;1.21;100.00
25722;BME280;13578;53.450;15.496;2024-03-08T08:20:49;100564.88;;;1.38;100.00
25722;BME280;13578;53.450;15.496;2024-03-08T08:23:50;100573.47;;;1.49;100.00
25722;BME280;13578;53.450;15.496;2024-03-08T08:26:51;100569.50;;;1.58;100.00
25722;BME280;13578;53.450;15.496;2024-03-08T08:29:53;100569.50;;;1.80;100.00
25722;BME280;13578;53.450;15.496;2024-03-08T08:32:53;100568.53;;;2.03;100.00
25722;BME280;13578;53.450;15.496;2024-03-08T08:35:55;100561.81;;;1.92;100.00
25722;BME280;13578;53.450;15.496;2024-03-08T08:38:56;100549.41;;;2.08;100.00
25722;BME280;13578;53.450;15.496;2024-03-08T08:41:58;100552.31;;;2.24;100.00
25722;BME280;13578;53.450;15.496;2024-03-08T08:44:59;100546.22;;;2.40;100.00
25722;BME280;13578;53.450;15.496;2024-03-08T08:48:00;100544.53;;;2.58;100.00
25722;BME280;13578;53.450;15.496;2024-03-08T08:51:01;100536.34;;;2.78;100.00
25722;BME280;13578;53.450;15.496;2024-03-08T08:54:02;100546.38;;;2.97;100.00
25722;BME280;13578;53.450;15.496;2024-03-08T08:57:02;100542.19;;;3.09;100.00
25722;BME280;13578;53.450;15.496;2024-03-08T09:00:08;100531.63;;;3.22;100.00
25722;BME280;13578;53.450;15.496;2024-03-08T09:03:14;100532.28;;;3.27;100.00
25722;BME280;13578;53.450;15.496;2024-03-08T09:06:17;100527.44;;;3.33;100.00
25722;BME280;13578;53.450;15.496;2024-03-08T09:09:18;100519.72;;;3.62;100.00
25722;BME280;13578;53.450;15.496;2024-03-08T09:12:19;100520.94;;;3.74;100.00
25722;BME280;13578;53.450;15.496;2024-03-08T09:15:19;100513.75;;;3.73;100.00
25722;BME280;13578;53.450;15.496;2024-03-08T09:18:20;100511.19;;;3.88;100.00
25722;BME280;13578;53.450;15.496;2024-03-08T09:21:21;100514.19;;;4.01;100.00
25722;BME280;13578;53.450;15.496;2024-03-08T09:24:22;100508.09;;;4.13;100.00
25722;BME280;13578;53.450;15.496;2024-03-08T09:27:23;100506.34;;;4.29;100.00
25722;BME280;13578;53.450;15.496;2024-03-08T09:30:24;100494.66;;;4.45;100.00
25722;BME280;13578;53.450;15.496;2024-03-08T09:33:24;100477.88;;;4.54;100.00
25722;BME280;13578;53.450;15.496;2024-03-08T09:36:25;100488.63;;;4.73;100.00
25722;BME280;13578;53.450;15.496;2024-03-08T09:39:26;100477.47;;;4.78;100.00
25722;BME280;13578;53.450;15.496;2024-03-08T09:42:27;100481.06;;;4.79;100.00
25722;BME280;13578;53.450;15.496;2024-03-08T09:45:30;100489.16;;;4.96;100.00
25722;BME280;13578;53.450;15.496;2024-03-08T09:48:32;100479.44;;;5.08;100.00
25722;BME280;13578;53.450;15.496;2024-03-08T09:51:34;100469.97;;;5.15;100.00
25722;BME280;13578;53.450;15.496;2024-03-08T09:54:40;100455.75;;;5.26;100.00
25722;BME280;13578;53.450;15.496;2024-03-08T09:57:43;100449.59;;;5.22;100.00
25722;BME280;13578;53.450;15.496;2024-03-08T10:01:03;100444.78;;;5.28;100.00
25722;BME280;13578;53.450;15.496;2024-03-08T10:04:07;100442.84;;;5.30;100.00
25722;BME280;13578;53.450;15.496;2024-03-08T10:07:08;100437.75;;;5.39;100.00
25722;BME280;13578;53.450;15.496;2024-03-08T10:10:08;100437.19;;;5.49;100.00
25722;BME280;13578;53.450;15.496;2024-03-08T10:13:12;100427.19;;;5.49;100.00
25722;BME280;13578;53.450;15.496;2024-03-08T10:16:14;100402.91;;;5.61;100.00
25722;BME280;13578;53.450;15.496;2024-03-08T10:19:14;100419.50;;;5.72;100.00
25722;BME280;13578;53.450;15.496;2024-03-08T10:22:16;100414.38;;;5.82;100.00
25722;BME280;13578;53.450;15.496;2024-03-08T10:25:17;100400.91;;;5.95;100.00
25722;BME280;13578;53.450;15.496;2024-03-08T10:28:17;100405.78;;;6.04;100.00
25722;BME280;13578;53.450;15.496;2024-03-08T10:31:19;100389.16;;;6.23;100.00
25722;BME280;13578;53.450;15.496;2024-03-08T10:34:20;100401.16;;;6.20;100.00
25722;BME280;13578;53.450;15.496;2024-03-08T10:37:23;100385.06;;;6.01;100.00
25722;BME280;13578;53.450;15.496;2024-03-08T10:40:26;100387.78;;;6.01;100.00
25722;BME280;13578;53.450;15.496;2024-03-08T10:43:28;100373.38;;;6.14;100.00
25722;BME280;13578;53.450;15.496;2024-03-08T10:50:03;100357.72;;;6.17;100.00
25722;BME280;13578;53.450;15.496;2024-03-08T10:53:10;100353.56;;;6.26;100.00
25722;BME280;13578;53.450;15.496;2024-03-08T10:56:11;100357.81;;;6.30;100.00
25722;BME280;13578;53.450;15.496;2024-03-08T10:59:15;100345.09;;;6.45;100.00
25722;BME280;13578;53.450;15.496;2024-03-08T11:02:17;100333.38;;;6.43;99.43
25722;BME280;13578;53.450;15.496;2024-03-08T11:05:39;100343.09;;;6.47;100.00
25722;BME280;13578;53.450;15.496;2024-03-08T11:08:40;100351.78;;;6.54;100.00
25722;BME280;13578;53.450;15.496;2024-03-08T11:11:41;100332.84;;;6.65;97.77
25722;BME280;13578;53.450;15.496;2024-03-08T11:14:44;100335.66;;;6.78;99.79
25722;BME280;13578;53.450;15.496;2024-03-08T11:17:48;100318.69;;;6.88;95.61
25722;BME280;13578;53.450;15.496;2024-03-08T11:20:49;100313.84;;;6.78;94.62
25722;BME280;13578;53.450;15.496;2024-03-08T11:27:03;100283.53;;;6.83;88.78
25722;BME280;13578;53.450;15.496;2024-03-08T11:30:06;100291.66;;;6.97;89.87
25722;BME280;13578;53.450;15.496;2024-03-08T11:33:18;100268.53;;;7.03;83.58
25722;BME280;13578;53.450;15.496;2024-03-08T11:36:23;100272.25;;;7.02;82.46
25722;BME280;13578;53.450;15.496;2024-03-08T11:39:25;100278.56;;;7.03;84.14
25722;BME280;13578;53.450;15.496;2024-03-08T11:42:26;100280.16;;;7.20;85.84
25722;BME280;13578;53.450;15.496;2024-03-08T11:45:27;100263.75;;;7.20;83.62
25722;BME280;13578;53.450;15.496;2024-03-08T11:48:27;100253.47;;;7.38;81.12
25722;BME280;13578;53.450;15.496;2024-03-08T11:51:28;100242.94;;;7.31;79.54
25722;BME280;13578;53.450;15.496;2024-03-08T11:54:30;100250.03;;;7.21;81.45
25722;BME280;13578;53.450;15.496;2024-03-08T11:57:31;100272.88;;;7.33;84.97
25722;BME280;13578;53.450;15.496;2024-03-08T12:00:32;100253.78;;;7.46;81.66
25722;BME280;13578;53.450;15.496;2024-03-08T12:03:35;100259.13;;;7.60;84.26
25722;BME280;13578;53.450;15.496;2024-03-08T12:06:40;100259.69;;;7.53;85.41
25722;BME280;13578;53.450;15.496;2024-03-08T12:09:41;100231.84;;;7.47;80.64
25722;BME280;13578;53.450;15.496;2024-03-08T12:12:53;100222.00;;;7.58;78.85
25722;BME280;13578;53.450;15.496;2024-03-08T12:15:58;100233.69;;;7.60;80.03
25722;BME280;13578;53.450;15.496;2024-03-08T12:18:59;100219.50;;;7.55;78.55
25722;BME280;13578;53.450;15.496;2024-03-08T12:22:07;100229.53;;;7.67;79.16
25722;BME280;13578;53.450;15.496;2024-03-08T12:25:13;100215.56;;;7.85;77.45
25722;BME280;13578;53.450;15.496;2024-03-08T12:28:14;100205.38;;;7.87;74.73
25722;BME280;13578;53.450;15.496;2024-03-08T12:31:16;100197.50;;;7.82;74.23
25722;BME280;13578;53.450;15.496;2024-03-08T12:34:17;100206.91;;;7.78;76.35
25722;BME280;13578;53.450;15.496;2024-03-08T12:37:18;100197.72;;;7.79;74.23
25722;BME280;13578;53.450;15.496;2024-03-08T12:40:29;100175.22;;;7.75;69.76
25722;BME280;13578;53.450;15.496;2024-03-08T12:43:30;100196.84;;;7.78;73.60
25722;BME280;13578;53.450;15.496;2024-03-08T12:46:30;100167.09;;;7.87;69.60
25722;BME280;13578;53.450;15.496;2024-03-08T12:49:32;100151.41;;;7.77;67.08
25722;BME280;13578;53.450;15.496;2024-03-08T12:52:33;100139.69;;;7.75;67.35
25722;BME280;13578;53.450;15.496;2024-03-08T12:55:34;100165.91;;;7.91;68.95
25722;BME280;13578;53.450;15.496;2024-03-08T12:58:35;100142.28;;;8.03;64.66
25722;BME280;13578;53.450;15.496;2024-03-08T13:01:36;100154.72;;;8.07;67.24
25722;BME280;13578;53.450;15.496;2024-03-08T13:04:37;100135.03;;;8.15;65.32
25722;BME280;13578;53.450;15.496;2024-03-08T13:07:38;100124.53;;;8.08;62.94
25722;BME280;13578;53.450;15.496;2024-03-08T13:10:40;100124.75;;;8.05;63.82
25722;BME280;13578;53.450;15.496;2024-03-08T13:13:43;100127.56;;;8.17;64.79
25722;BME280;13578;53.450;15.496;2024-03-08T13:16:44;100110.41;;;8.15;62.49
25722;BME280;13578;53.450;15.496;2024-03-08T13:19:48;100128.16;;;8.09;63.72
25722;BME280;13578;53.450;15.496;2024-03-08T13:22:49;100125.75;;;8.04;64.05
25722;BME280;13578;53.450;15.496;2024-03-08T13:25:49;100132.72;;;8.08;65.66
25722;BME280;13578;53.450;15.496;2024-03-08T13:28:51;100143.13;;;8.03;67.84
25722;BME280;13578;53.450;15.496;2024-03-08T13:31:54;100128.84;;;8.24;66.57
25722;BME280;13578;53.450;15.496;2024-03-08T13:34:56;100129.72;;;8.24;68.35
25722;BME280;13578;53.450;15.496;2024-03-08T13:37:57;100133.78;;;8.19;67.23
25722;BME280;13578;53.450;15.496;2024-03-08T13:40:58;100109.66;;;8.13;64.94
25722;BME280;13578;53.450;15.496;2024-03-08T13:43:59;100078.34;;;8.17;60.74
25722;BME280;13578;53.450;15.496;2024-03-08T13:47:00;100079.06;;;8.07;60.81
25722;BME280;13578;53.450;15.496;2024-03-08T13:50:05;100083.63;;;8.07;61.71
25722;BME280;13578;53.450;15.496;2024-03-08T13:53:07;100101.91;;;8.06;64.23
25722;BME280;13578;53.450;15.496;2024-03-08T13:56:10;100110.94;;;8.20;67.06
25722;BME280;13578;53.450;15.496;2024-03-08T13:59:11;100111.88;;;8.07;68.90
25722;BME280;13578;53.450;15.496;2024-03-08T14:02:12;100102.25;;;8.26;67.41
25722;BME280;13578;53.450;15.496;2024-03-08T14:05:13;100056.72;;;8.14;61.01
25722;BME280;13578;53.450;15.496;2024-03-08T14:08:15;100070.41;;;8.14;61.74
25722;BME280;13578;53.450;15.496;2024-03-08T14:11:17;100071.78;;;8.19;62.24
25722;BME280;13578;53.450;15.496;2024-03-08T14:14:20;100056.91;;;8.23;61.12
25722;BME280;13578;53.450;15.496;2024-03-08T14:17:21;100068.13;;;8.07;62.79
25722;BME280;13578;53.450;15.496;2024-03-08T14:20:23;100044.34;;;8.21;59.48
25722;BME280;13578;53.450;15.496;2024-03-08T14:23:26;100057.25;;;8.19;61.43
25722;BME280;13578;53.450;15.496;2024-03-08T14:26:27;100049.44;;;8.01;61.60
25722;BME280;13578;53.450;15.496;2024-03-08T14:29:28;100057.19;;;8.07;61.66
25722;BME280;13578;53.450;15.496;2024-03-08T14:32:30;100049.97;;;8.06;61.65
25722;BME280;13578;53.450;15.496;2024-03-08T14:35:31;100045.63;;;8.04;60.13
25722;BME280;13578;53.450;15.496;2024-03-08T14:38:32;100040.88;;;8.06;60.45
25722;BME280;13578;53.450;15.496;2024-03-08T14:41:33;100037.13;;;7.95;60.27
25722;BME280;13578;53.450;15.496;2024-03-08T14:44:33;100023.97;;;8.01;58.13
25722;BME280;13578;53.450;15.496;2024-03-08T14:47:34;100003.91;;;7.89;56.72
25722;BME280;13578;53.450;15.496;2024-03-08T14:50:35;100017.06;;;7.84;57.85
25722;BME280;13578;53.450;15.496;2024-03-08T14:53:37;100012.09;;;7.89;57.23
25722;BME280;13578;53.450;15.496;2024-03-08T14:56:40;100002.41;;;7.85;57.21
25722;BME280;13578;53.450;15.496;2024-03-08T14:59:41;99992.81;;;7.79;55.33
25722;BME280;13578;53.450;15.496;2024-03-08T15:02:43;100010.31;;;7.76;57.42
25722;BME280;13578;53.450;15.496;2024-03-08T15:05:44;100023.00;;;7.77;59.30
25722;BME280;13578;53.450;15.496;2024-03-08T15:08:48;100045.50;;;7.81;61.36
25722;BME280;13578;53.450;15.496;2024-03-08T15:11:49;100024.16;;;7.86;60.37
25722;BME280;13578;53.450;15.496;2024-03-08T15:14:50;100010.81;;;7.82;57.96
25722;BME280;13578;53.450;15.496;2024-03-08T15:17:51;100000.06;;;7.67;57.51
25722;BME280;13578;53.450;15.496;2024-03-08T15:20:54;100006.16;;;7.71;57.96
25722;BME280;13578;53.450;15.496;2024-03-08T15:23:55;100034.59;;;7.68;62.09
25722;BME280;13578;53.450;15.496;2024-03-08T15:26:56;100043.59;;;7.57;64.61
25722;BME280;13578;53.450;15.496;2024-03-08T15:29:57;100025.47;;;7.43;62.63
25722;BME280;13578;53.450;15.496;2024-03-08T15:32:58;100034.22;;;7.49;64.40
25722;BME280;13578;53.450;15.496;2024-03-08T15:36:03;100032.69;;;7.44;64.78
25722;BME280;13578;53.450;15.496;2024-03-08T15:39:08;100039.06;;;7.32;64.86
25722;BME280;13578;53.450;15.496;2024-03-08T15:42:10;100020.28;;;7.27;64.93